createdAt,value
2017-07-15T00:01:04.638Z,1017.19
2017-07-15T03:32:54.904Z,1018.47
2017-07-15T03:34:03.993Z,1018.54
2017-07-15T03:35:13.402Z,1018.53
2017-07-15T03:36:22.416Z,1018.49
2017-07-15T03:37:32.037Z,1018.52
2017-07-15T03:38:41.105Z,1018.52
2017-07-15T03:39:50.569Z,1018.51
2017-07-15T03:41:00.007Z,1018.54
2017-07-15T03:42:09.074Z,1018.56
2017-07-15T03:43:18.617Z,1018.63
2017-07-15T03:44:28.068Z,1018.61
2017-07-15T03:45:37.088Z,1018.62
2017-07-15T03:46:46.141Z,1018.65
2017-07-15T03:47:55.622Z,1018.65
2017-07-15T03:49:04.914Z,1018.68
2017-07-15T03:50:14.318Z,1018.72
2017-07-15T03:51:24.006Z,1018.69
2017-07-15T03:52:33.089Z,1018.72
2017-07-15T03:53:42.517Z,1018.76
2017-07-15T03:54:51.703Z,1018.72
2017-07-15T03:56:00.761Z,1018.78
2017-07-15T03:57:10.276Z,1018.78
2017-07-15T03:58:19.411Z,1018.77
2017-07-15T03:59:29.384Z,1018.8
2017-07-15T04:00:39.178Z,1018.76
2017-07-15T04:01:49.266Z,1018.77
2017-07-15T04:02:58.411Z,1018.7
2017-07-15T04:04:08.053Z,1018.77
2017-07-15T04:05:18.035Z,1018.77
2017-07-15T04:06:29.307Z,1018.81
2017-07-15T04:07:39.417Z,1018.79
2017-07-15T04:08:49.554Z,1018.79
2017-07-15T04:09:59.970Z,1018.86
2017-07-15T04:11:10.562Z,1018.87
2017-07-15T04:12:19.858Z,1018.87
2017-07-15T04:13:28.713Z,1018.87
2017-07-15T04:14:37.567Z,1018.87
2017-07-15T04:15:46.420Z,1018.85
2017-07-15T04:16:55.273Z,1018.87
2017-07-15T04:18:04.227Z,1018.88
2017-07-15T04:19:13.079Z,1018.86
2017-07-15T04:20:21.934Z,1018.86
2017-07-15T04:21:30.789Z,1018.82
2017-07-15T04:22:39.643Z,1018.88
2017-07-15T04:23:48.595Z,1018.93
2017-07-15T04:24:57.450Z,1018.91
2017-07-15T04:26:06.302Z,1018.92
2017-07-15T04:27:15.157Z,1018.89
2017-07-15T04:28:24.012Z,1018.93
2017-07-15T04:29:32.967Z,1018.97
2017-07-15T04:30:41.820Z,1018.96
2017-07-15T04:31:50.675Z,1018.98
2017-07-15T04:32:59.535Z,1019
2017-07-15T04:34:08.387Z,1019.05
2017-07-15T04:35:17.240Z,1018.98
2017-07-15T04:36:26.095Z,1018.97
2017-07-15T04:37:34.948Z,1019
2017-07-15T04:38:43.804Z,1019.01
2017-07-15T04:39:52.656Z,1019.04
2017-07-15T04:41:01.508Z,1019.01
2017-07-15T04:42:10.363Z,1019.03
2017-07-15T04:43:19.223Z,1019.05
2017-07-15T04:44:28.072Z,1019.05
2017-07-15T04:45:36.926Z,1019.08
2017-07-15T04:46:45.929Z,1019.1
2017-07-15T04:47:54.785Z,1019.11
2017-07-15T04:49:03.641Z,1019.09
2017-07-15T04:50:12.497Z,1019.1
2017-07-15T04:51:21.351Z,1019.1
2017-07-15T04:52:30.254Z,1019.14
2017-07-15T04:53:39.108Z,1019.09
2017-07-15T04:54:47.964Z,1019.11
2017-07-15T04:55:56.818Z,1019.09
2017-07-15T04:57:05.719Z,1019.13
2017-07-15T04:58:14.771Z,1019.18
2017-07-15T04:59:23.625Z,1019.18
2017-07-15T05:00:32.482Z,1019.26
2017-07-15T05:01:41.331Z,1019.24
2017-07-15T05:02:50.183Z,1019.24
2017-07-15T05:03:59.137Z,1019.23
2017-07-15T05:05:07.990Z,1019.15
2017-07-15T05:06:16.845Z,1019.23
2017-07-15T05:07:25.700Z,1019.25
2017-07-15T05:08:34.556Z,1019.22
2017-07-15T05:09:43.509Z,1019.24
2017-07-15T05:10:52.363Z,1019.22
2017-07-15T05:12:01.218Z,1019.26
2017-07-15T05:13:10.071Z,1019.25
2017-07-15T05:14:19.261Z,1019.19
2017-07-15T05:15:28.116Z,1019.2
2017-07-15T05:16:36.971Z,1019.2
2017-07-15T05:17:45.824Z,1019.17
2017-07-15T05:18:54.679Z,1019.17
2017-07-15T05:20:03.535Z,1019.19
2017-07-15T05:21:12.490Z,1019.16
2017-07-15T05:22:21.348Z,1019.19
2017-07-15T05:23:30.552Z,1019.22
2017-07-15T05:24:39.386Z,1019.18
2017-07-15T05:25:48.239Z,1019.21
2017-07-15T05:26:57.342Z,1019.25
2017-07-15T05:28:06.197Z,1019.27
2017-07-15T05:29:15.057Z,1019.27
2017-07-15T05:30:23.911Z,1019.29
2017-07-15T05:31:32.765Z,1019.33
2017-07-15T05:32:41.769Z,1019.33
2017-07-15T05:33:50.623Z,1019.36
2017-07-15T05:34:59.480Z,1019.37
2017-07-15T05:36:08.333Z,1019.39
2017-07-15T05:37:17.190Z,1019.44
2017-07-15T05:38:26.196Z,1019.44
2017-07-15T05:39:35.050Z,1019.44
2017-07-15T05:40:43.903Z,1019.39
2017-07-15T05:41:52.755Z,1019.4
2017-07-15T05:43:01.609Z,1019.43
2017-07-15T05:44:10.720Z,1019.41
2017-07-15T05:45:19.572Z,1019.42
2017-07-15T05:46:28.430Z,1019.43
2017-07-15T05:47:37.280Z,1019.43
2017-07-15T05:48:46.134Z,1019.46
2017-07-15T05:49:54.990Z,1019.5
2017-07-15T05:51:03.892Z,1019.5
2017-07-15T05:52:12.746Z,1019.51
2017-07-15T05:53:21.601Z,1019.54
2017-07-15T05:54:30.458Z,1019.55
2017-07-15T05:55:39.614Z,1019.55
2017-07-15T05:56:48.470Z,1019.58
2017-07-15T05:57:57.325Z,1019.6
2017-07-15T05:59:06.182Z,1019.65
2017-07-15T06:00:15.037Z,1019.63
2017-07-15T06:01:24.293Z,1019.62
2017-07-15T06:02:33.146Z,1019.6
2017-07-15T06:03:41.999Z,1019.67
2017-07-15T06:04:50.858Z,1019.7
2017-07-15T06:05:59.713Z,1019.69
2017-07-15T06:07:08.719Z,1019.72
2017-07-15T06:08:17.575Z,1019.76
2017-07-15T06:09:26.430Z,1019.75
2017-07-15T06:10:35.288Z,1019.78
2017-07-15T06:11:44.144Z,1019.77
2017-07-15T06:12:53.151Z,1019.8
2017-07-15T06:14:02.340Z,1019.83
2017-07-15T06:15:11.196Z,1019.87
2017-07-15T06:16:20.052Z,1019.88
2017-07-15T06:17:29.239Z,1019.9
2017-07-15T06:18:38.244Z,1019.9
2017-07-15T06:19:47.098Z,1019.87
2017-07-15T06:20:55.954Z,1019.85
2017-07-15T06:22:04.810Z,1019.84
2017-07-15T06:23:13.665Z,1019.82
2017-07-15T06:24:22.521Z,1019.8
2017-07-15T06:25:31.376Z,1019.78
2017-07-15T06:26:40.231Z,1019.83
2017-07-15T06:27:49.086Z,1019.81
2017-07-15T06:28:57.941Z,1019.79
2017-07-15T06:30:06.845Z,1019.82
2017-07-15T06:31:15.701Z,1019.84
2017-07-15T06:32:24.556Z,1019.86
2017-07-15T06:33:33.413Z,1019.83
2017-07-15T06:34:42.269Z,1019.85
2017-07-15T06:35:51.176Z,1019.83
2017-07-15T06:37:00.031Z,1019.86
2017-07-15T06:38:08.886Z,1019.84
2017-07-15T06:39:17.743Z,1019.78
2017-07-15T06:40:26.601Z,1019.82
2017-07-15T06:41:35.759Z,1019.83
2017-07-15T06:42:44.615Z,1019.83
2017-07-15T06:43:53.472Z,1019.91
2017-07-15T06:45:02.329Z,1019.89
2017-07-15T06:46:11.186Z,1019.95
2017-07-15T06:47:20.090Z,1019.95
2017-07-15T06:48:28.947Z,1019.93
2017-07-15T06:49:37.816Z,1019.93
2017-07-15T06:50:47.009Z,1019.93
2017-07-15T06:51:55.865Z,1020.01
2017-07-15T06:53:04.772Z,1020.05
2017-07-15T06:54:13.627Z,1020.03
2017-07-15T06:55:22.481Z,1020.1
2017-07-15T06:56:31.336Z,1020.04
2017-07-15T06:57:40.193Z,1020.06
2017-07-15T06:58:49.100Z,1020.05
2017-07-15T06:59:57.957Z,1020.05
2017-07-15T07:01:06.814Z,1020.06
2017-07-15T07:02:15.670Z,1020.06
2017-07-15T07:03:24.525Z,1020.09
2017-07-15T07:04:33.481Z,1020.12
2017-07-15T07:05:42.337Z,1020.15
2017-07-15T07:06:51.193Z,1020.17
2017-07-15T07:08:00.049Z,1020.2
2017-07-15T07:09:08.905Z,1020.2
2017-07-15T07:10:18.009Z,1020.22
2017-07-15T07:11:26.866Z,1020.28
2017-07-15T07:12:35.720Z,1020.26
2017-07-15T07:13:44.578Z,1020.26
2017-07-15T07:14:53.432Z,1020.3
2017-07-15T07:16:02.587Z,1020.32
2017-07-15T07:17:11.777Z,1020.3
2017-07-15T07:18:20.636Z,1020.3
2017-07-15T07:19:29.492Z,1020.28
2017-07-15T07:20:38.348Z,1020.24
2017-07-15T07:21:47.255Z,1020.24
2017-07-15T07:22:56.446Z,1020.28
2017-07-15T07:24:05.303Z,1020.24
2017-07-15T07:25:14.156Z,1020.26
2017-07-15T07:26:23.012Z,1020.29
2017-07-15T07:27:32.018Z,1020.34
2017-07-15T07:28:41.207Z,1020.35
2017-07-15T07:29:50.065Z,1020.33
2017-07-15T07:30:59.252Z,1020.37
2017-07-15T07:32:08.108Z,1020.39
2017-07-15T07:33:17.061Z,1020.42
2017-07-15T07:34:25.919Z,1020.43
2017-07-15T07:35:34.776Z,1020.48
2017-07-15T07:36:43.632Z,1020.5
2017-07-15T07:37:52.487Z,1020.51
2017-07-15T07:39:01.644Z,1020.53
2017-07-15T07:40:10.504Z,1020.52
2017-07-15T07:41:19.361Z,1020.51
2017-07-15T07:42:28.215Z,1020.53
2017-07-15T07:43:37.073Z,1020.53
2017-07-15T07:44:46.131Z,1020.52
2017-07-15T07:45:54.986Z,1020.55
2017-07-15T07:47:03.842Z,1020.54
2017-07-15T07:48:12.697Z,1020.55
2017-07-15T07:49:21.892Z,1020.52
2017-07-15T07:50:31.049Z,1020.55
2017-07-15T07:51:39.904Z,1020.55
2017-07-15T07:52:48.761Z,1020.58
2017-07-15T07:53:57.617Z,1020.58
2017-07-15T07:55:06.474Z,1020.59
2017-07-15T07:56:15.432Z,1020.61
2017-07-15T07:57:24.289Z,1020.62
2017-07-15T07:58:33.144Z,1020.64
2017-07-15T07:59:42.001Z,1020.63
2017-07-15T08:00:50.858Z,1020.63
2017-07-15T08:01:59.713Z,1020.7
2017-07-15T08:03:08.568Z,1020.69
2017-07-15T08:04:17.423Z,1020.71
2017-07-15T08:05:26.279Z,1020.77
2017-07-15T08:06:35.137Z,1020.74
2017-07-15T08:07:44.143Z,1020.77
2017-07-15T08:08:53.000Z,1020.76
2017-07-15T08:10:01.856Z,1020.82
2017-07-15T08:11:10.714Z,1020.79
2017-07-15T08:12:19.570Z,1020.79
2017-07-15T08:13:28.433Z,1020.81
2017-07-15T08:14:37.285Z,1020.83
2017-07-15T08:15:46.143Z,1020.82
2017-07-15T08:16:55.001Z,1020.83
2017-07-15T08:18:03.859Z,1020.88
2017-07-15T08:19:12.716Z,1020.81
2017-07-15T08:20:21.573Z,1020.82
2017-07-15T08:21:30.431Z,1020.86
2017-07-15T08:22:39.287Z,1020.88
2017-07-15T08:23:48.143Z,1020.87
2017-07-15T08:24:57.149Z,1020.92
2017-07-15T08:26:06.006Z,1020.87
2017-07-15T08:27:14.864Z,1020.86
2017-07-15T08:28:23.722Z,1020.88
2017-07-15T08:29:32.582Z,1020.84
2017-07-15T08:30:41.439Z,1020.8
2017-07-15T08:31:50.298Z,1020.79
2017-07-15T08:32:59.157Z,1020.77
2017-07-15T08:34:08.011Z,1020.79
2017-07-15T08:35:16.872Z,1020.8
2017-07-15T08:36:25.880Z,1020.82
2017-07-15T08:37:34.737Z,1020.84
2017-07-15T08:38:43.596Z,1020.85
2017-07-15T08:39:52.454Z,1020.86
2017-07-15T08:41:01.315Z,1020.91
2017-07-15T08:42:10.321Z,1020.88
2017-07-15T08:43:19.178Z,1020.91
2017-07-15T08:44:28.035Z,1020.91
2017-07-15T08:45:36.892Z,1020.93
2017-07-15T08:46:45.751Z,1020.97
2017-07-15T08:47:55.091Z,1020.9
2017-07-15T08:49:04.283Z,1020.91
2017-07-15T08:50:13.143Z,1020.88
2017-07-15T08:51:22.000Z,1020.89
2017-07-15T08:52:30.858Z,1020.96
2017-07-15T08:53:39.872Z,1020.95
2017-07-15T08:54:48.732Z,1020.97
2017-07-15T08:55:57.591Z,1021.02
2017-07-15T08:57:06.451Z,1021.02
2017-07-15T08:58:15.310Z,1021.02
2017-07-15T08:59:24.468Z,1021.01
2017-07-15T09:00:33.326Z,1021.1
2017-07-15T09:01:42.186Z,1021.06
2017-07-15T09:02:51.042Z,1021.08
2017-07-15T09:03:59.902Z,1021.1
2017-07-15T09:05:09.097Z,1021.07
2017-07-15T09:06:17.957Z,1021.07
2017-07-15T09:07:26.816Z,1021.1
2017-07-15T09:08:35.674Z,1021.09
2017-07-15T09:09:44.535Z,1021.11
2017-07-15T09:10:53.595Z,1021.12
2017-07-15T09:12:02.452Z,1021.09
2017-07-15T09:13:11.311Z,1021.13
2017-07-15T09:14:20.169Z,1021.12
2017-07-15T09:15:29.028Z,1021.15
2017-07-15T09:16:38.187Z,1021.15
2017-07-15T09:17:47.382Z,1021.1
2017-07-15T09:18:56.244Z,1021.11
2017-07-15T09:20:05.101Z,1021.09
2017-07-15T09:21:13.961Z,1021.13
2017-07-15T09:22:23.120Z,1021.17
2017-07-15T09:23:31.980Z,1021.07
2017-07-15T09:24:40.839Z,1021.15
2017-07-15T09:25:49.698Z,1021.18
2017-07-15T09:26:58.560Z,1021.24
2017-07-15T09:28:07.721Z,1021.22
2017-07-15T09:29:16.583Z,1021.16
2017-07-15T09:30:25.444Z,1021.18
2017-07-15T09:31:34.304Z,1021.21
2017-07-15T09:32:43.162Z,1021.18
2017-07-15T09:33:52.071Z,1021.14
2017-07-15T09:35:00.932Z,1021.14
2017-07-15T09:36:09.789Z,1021.15
2017-07-15T09:37:18.647Z,1021.19
2017-07-15T09:38:27.506Z,1021.2
2017-07-15T09:39:36.420Z,1021.19
2017-07-15T09:40:45.947Z,1021.12
2017-07-15T09:41:54.805Z,1021.12
2017-07-15T09:43:03.662Z,1021.12
2017-07-15T09:44:12.520Z,1021.06
2017-07-15T09:45:21.580Z,1021.15
2017-07-15T09:46:30.440Z,1021.12
2017-07-15T09:47:39.299Z,1021.17
2017-07-15T09:48:48.156Z,1021.15
2017-07-15T09:49:57.015Z,1021.18
2017-07-15T09:51:05.925Z,1021.19
2017-07-15T09:52:14.783Z,1021.16
2017-07-15T09:53:23.642Z,1021.25
2017-07-15T09:54:32.501Z,1021.27
2017-07-15T09:55:41.360Z,1021.26
2017-07-15T09:56:50.519Z,1021.23
2017-07-15T09:57:59.379Z,1021.28
2017-07-15T09:59:08.236Z,1021.29
2017-07-15T10:00:17.098Z,1021.29
2017-07-15T10:01:25.955Z,1021.37
2017-07-15T10:02:34.864Z,1021.36
2017-07-15T10:03:43.728Z,1021.3
2017-07-15T10:04:52.588Z,1021.38
2017-07-15T10:06:01.449Z,1021.31
2017-07-15T10:07:10.313Z,1021.32
2017-07-15T10:08:19.272Z,1021.29
2017-07-15T10:09:28.133Z,1021.24
2017-07-15T10:10:36.999Z,1021.3
2017-07-15T10:11:45.855Z,1021.32
2017-07-15T10:12:54.715Z,1021.33
2017-07-15T10:14:03.826Z,1021.33
2017-07-15T10:15:12.687Z,1021.37
2017-07-15T10:16:21.882Z,1021.39
2017-07-15T10:17:30.743Z,1021.39
2017-07-15T10:18:39.604Z,1021.38
2017-07-15T10:19:49.100Z,1021.37
2017-07-15T10:20:57.961Z,1021.41
2017-07-15T10:22:06.820Z,1021.4
2017-07-15T10:23:15.680Z,1021.43
2017-07-15T10:24:24.873Z,1021.4
2017-07-15T10:25:33.834Z,1021.4
2017-07-15T10:26:42.698Z,1021.44
2017-07-15T10:27:51.558Z,1021.45
2017-07-15T10:29:00.420Z,1021.44
2017-07-15T10:30:09.280Z,1021.47
2017-07-15T10:31:18.139Z,1021.42
2017-07-15T10:32:27.000Z,1021.43
2017-07-15T10:33:35.864Z,1021.42
2017-07-15T10:34:44.724Z,1021.36
2017-07-15T10:35:53.587Z,1021.33
2017-07-15T10:37:02.500Z,1021.35
2017-07-15T10:38:11.360Z,1021.44
2017-07-15T10:39:20.215Z,1021.36
2017-07-15T10:40:29.075Z,1021.44
2017-07-15T10:41:37.936Z,1021.54
2017-07-15T10:42:46.946Z,1021.49
2017-07-15T10:43:55.804Z,1021.46
2017-07-15T10:45:04.665Z,1021.53
2017-07-15T10:46:13.525Z,1021.58
2017-07-15T10:47:22.387Z,1021.56
2017-07-15T10:48:31.598Z,1021.5
2017-07-15T10:49:40.458Z,1021.56
2017-07-15T10:50:49.317Z,1021.55
2017-07-15T10:51:58.177Z,1021.55
2017-07-15T10:53:07.036Z,1021.6
2017-07-15T10:54:16.195Z,1021.63
2017-07-15T10:55:25.055Z,1021.61
2017-07-15T10:56:33.914Z,1021.68
2017-07-15T10:57:42.771Z,1021.66
2017-07-15T10:58:51.629Z,1021.65
2017-07-15T11:00:00.740Z,1021.65
2017-07-15T11:01:09.615Z,1021.61
2017-07-15T11:02:18.474Z,1021.61
2017-07-15T11:03:27.332Z,1021.62
2017-07-15T11:04:36.191Z,1021.66
2017-07-15T11:05:45.381Z,1021.69
2017-07-15T11:06:54.240Z,1021.65
2017-07-15T11:08:03.100Z,1021.7
2017-07-15T11:09:11.959Z,1021.72
2017-07-15T11:10:20.818Z,1021.74
2017-07-15T11:11:29.675Z,1021.84
2017-07-15T11:12:38.536Z,1021.73
2017-07-15T11:13:47.396Z,1021.77
2017-07-15T11:14:56.260Z,1021.78
2017-07-15T11:16:05.114Z,1021.8
2017-07-15T11:17:14.021Z,1021.78
2017-07-15T11:18:22.880Z,1021.79
2017-07-15T11:19:31.742Z,1021.89
2017-07-15T11:20:40.598Z,1021.79
2017-07-15T11:21:49.456Z,1021.87
2017-07-15T11:22:58.366Z,1021.9
2017-07-15T11:24:07.225Z,1021.86
2017-07-15T11:25:16.421Z,1021.9
2017-07-15T11:26:25.614Z,1021.85
2017-07-15T11:27:34.473Z,1021.81
2017-07-15T11:28:43.332Z,1021.8
2017-07-15T11:29:52.193Z,1021.77
2017-07-15T11:31:01.056Z,1021.77
2017-07-15T11:32:09.916Z,1021.83
2017-07-15T11:33:18.778Z,1021.83
2017-07-15T11:34:27.787Z,1021.86
2017-07-15T11:35:36.649Z,1021.84
2017-07-15T11:36:45.511Z,1021.89
2017-07-15T11:37:54.371Z,1021.82
2017-07-15T11:39:03.231Z,1021.87
2017-07-15T11:40:12.392Z,1021.86
2017-07-15T11:41:21.252Z,1021.9
2017-07-15T11:42:30.112Z,1021.83
2017-07-15T11:43:38.971Z,1021.87
2017-07-15T11:44:47.831Z,1021.91
2017-07-15T11:45:56.841Z,1021.91
2017-07-15T11:47:05.699Z,1021.94
2017-07-15T11:48:14.563Z,1021.95
2017-07-15T11:49:23.424Z,1021.95
2017-07-15T11:50:32.290Z,1021.97
2017-07-15T11:51:41.252Z,1021.94
2017-07-15T11:52:50.115Z,1021.97
2017-07-15T11:53:58.979Z,1021.99
2017-07-15T11:55:07.841Z,1022.01
2017-07-15T11:56:16.702Z,1022.05
2017-07-15T11:57:25.816Z,1022.02
2017-07-15T11:58:34.678Z,1021.97
2017-07-15T11:59:43.538Z,1022.04
2017-07-15T12:00:52.401Z,1022.07
2017-07-15T12:02:01.263Z,1022.08
2017-07-15T12:03:10.275Z,1022.03
2017-07-15T12:04:19.137Z,1022.09
2017-07-15T12:05:28.336Z,1022.08
2017-07-15T12:06:37.200Z,1021.97
2017-07-15T12:07:46.400Z,1022.09
2017-07-15T12:08:55.263Z,1022.07
2017-07-15T12:10:04.128Z,1022.05
2017-07-15T12:11:12.995Z,1022.01
2017-07-15T12:12:21.859Z,1021.98
2017-07-15T12:13:30.723Z,1021.99
2017-07-15T12:14:39.988Z,1021.96
2017-07-15T12:15:48.855Z,1021.99
2017-07-15T12:16:57.721Z,1022.02
2017-07-15T12:18:06.588Z,1022.15
2017-07-15T12:19:15.454Z,1022.04
2017-07-15T12:20:24.475Z,1021.99
2017-07-15T12:21:33.341Z,1021.98
2017-07-15T12:22:42.211Z,1022.12
2017-07-15T12:23:51.079Z,1022.02
2017-07-15T12:24:59.946Z,1022.05
2017-07-15T12:26:08.817Z,1022.01
2017-07-15T12:27:17.687Z,1021.98
2017-07-15T12:28:26.555Z,1022.08
2017-07-15T12:29:35.426Z,1021.98
2017-07-15T12:30:44.294Z,1022.06
2017-07-15T12:31:53.210Z,1022.02
2017-07-15T12:33:02.079Z,1022.07
2017-07-15T12:34:10.946Z,1022.02
2017-07-15T12:35:19.813Z,1022.13
2017-07-15T12:36:28.683Z,1021.98
2017-07-15T12:37:37.852Z,1021.98
2017-07-15T12:38:46.721Z,1021.98
2017-07-15T12:39:55.589Z,1022.04
2017-07-15T12:41:04.458Z,1022
2017-07-15T12:42:13.327Z,1022.02
2017-07-15T12:43:22.198Z,1021.98
2017-07-15T12:44:31.066Z,1021.99
2017-07-15T12:45:39.933Z,1021.95
2017-07-15T12:46:48.800Z,1021.93
2017-07-15T12:47:57.664Z,1021.92
2017-07-15T12:49:06.631Z,1021.98
2017-07-15T12:50:15.496Z,1021.99
2017-07-15T12:51:24.700Z,1021.95
2017-07-15T12:52:33.567Z,1021.93
2017-07-15T12:53:42.431Z,1022.02
2017-07-15T12:54:51.548Z,1021.94
2017-07-15T12:56:00.410Z,1021.96
2017-07-15T12:57:09.272Z,1021.95
2017-07-15T12:58:18.135Z,1021.98
2017-07-15T12:59:26.998Z,1021.93
2017-07-15T13:00:35.962Z,1022.06
2017-07-15T13:01:44.830Z,1022.09
2017-07-15T13:02:53.693Z,1022.08
2017-07-15T13:04:02.556Z,1022.03
2017-07-15T13:05:11.417Z,1022.06
2017-07-15T13:06:20.331Z,1022.1
2017-07-15T13:07:29.194Z,1022.1
2017-07-15T13:08:38.056Z,1022.13
2017-07-15T13:09:47.259Z,1022.28
2017-07-15T13:10:56.461Z,1022.27
2017-07-15T13:12:05.324Z,1022.28
2017-07-15T13:13:14.189Z,1022.35
2017-07-15T13:14:23.053Z,1022.21
2017-07-15T13:15:31.919Z,1022.24
2017-07-15T13:16:40.788Z,1022.31
2017-07-15T13:17:49.806Z,1022.21
2017-07-15T13:18:58.673Z,1022.21
2017-07-15T13:20:07.544Z,1022.14
2017-07-15T13:21:16.414Z,1022.17
2017-07-15T13:22:25.281Z,1022.21
2017-07-15T13:23:34.248Z,1022.27
2017-07-15T13:24:43.116Z,1022.26
2017-07-15T13:25:52.320Z,1022.28
2017-07-15T13:27:01.188Z,1022.26
2017-07-15T13:28:10.055Z,1022.26
2017-07-15T13:29:18.976Z,1022.2
2017-07-15T13:30:27.845Z,1022.24
2017-07-15T13:31:36.712Z,1022.33
2017-07-15T13:32:45.578Z,1022.36
2017-07-15T13:33:54.447Z,1022.38
2017-07-15T13:35:03.615Z,1022.3
2017-07-15T13:36:12.485Z,1022.32
2017-07-15T13:37:21.360Z,1022.3
2017-07-15T13:38:30.228Z,1022.33
2017-07-15T13:39:39.097Z,1022.28
2017-07-15T13:40:48.145Z,1022.31
2017-07-15T13:41:57.367Z,1022.36
2017-07-15T13:43:06.237Z,1022.35
2017-07-15T13:44:15.110Z,1022.38
2017-07-15T13:45:23.985Z,1022.31
2017-07-15T13:46:32.904Z,1022.35
2017-07-15T13:47:41.778Z,1022.37
2017-07-15T13:48:50.650Z,1022.35
2017-07-15T13:49:59.520Z,1022.24
2017-07-15T13:51:08.394Z,1022.37
2017-07-15T13:52:17.314Z,1022.18
2017-07-15T13:53:26.187Z,1022.2
2017-07-15T13:54:35.062Z,1022.4
2017-07-15T13:55:43.934Z,1022.35
2017-07-15T13:56:52.804Z,1022.23
2017-07-15T13:58:01.977Z,1022.38
2017-07-15T13:59:10.847Z,1022.41
2017-07-15T14:00:19.720Z,1022.39
2017-07-15T14:01:28.591Z,1022.39
2017-07-15T14:02:37.463Z,1022.43
2017-07-15T14:03:46.436Z,1022.45
2017-07-15T14:04:55.313Z,1022.5
2017-07-15T14:06:04.187Z,1022.25
2017-07-15T14:07:13.061Z,1022.27
2017-07-15T14:08:22.271Z,1022.26
2017-07-15T14:09:31.294Z,1022.27
2017-07-15T14:10:40.168Z,1022.28
2017-07-15T14:11:49.045Z,1022.59
2017-07-15T14:12:57.920Z,1022.28
2017-07-15T14:14:06.793Z,1022.31
2017-07-15T14:15:15.920Z,1022.36
2017-07-15T14:16:24.787Z,1022.29
2017-07-15T14:17:33.667Z,1022.23
2017-07-15T14:18:42.540Z,1022.28
2017-07-15T14:19:51.409Z,1022.26
2017-07-15T14:21:00.481Z,1022.54
2017-07-15T14:22:09.348Z,1022.2
2017-07-15T14:23:18.215Z,1022.17
2017-07-15T14:24:27.084Z,1022.22
2017-07-15T14:25:35.954Z,1022.23
2017-07-15T14:26:44.973Z,1022.52
2017-07-15T14:27:53.839Z,1022.55
2017-07-15T14:29:02.707Z,1022.55
2017-07-15T14:30:11.575Z,1022.47
2017-07-15T14:31:20.446Z,1022.46
2017-07-15T14:32:29.369Z,1022.33
2017-07-15T14:33:38.240Z,1022.63
2017-07-15T14:34:47.109Z,1022.54
2017-07-15T14:35:55.980Z,1022.46
2017-07-15T14:37:04.849Z,1022.51
2017-07-15T14:38:13.973Z,1022.31
2017-07-15T14:39:22.846Z,1022.48
2017-07-15T14:40:31.721Z,1022.41
2017-07-15T14:41:40.590Z,1022.16
2017-07-15T14:42:49.463Z,1022.25
2017-07-15T14:43:58.383Z,1022.25
2017-07-15T14:45:07.252Z,1022.23
2017-07-15T14:46:16.121Z,1022.25
2017-07-15T14:47:24.991Z,1022.32
2017-07-15T14:48:33.860Z,1022.8
2017-07-15T14:49:43.366Z,1022.45
2017-07-15T14:50:52.236Z,1022.84
2017-07-15T14:52:01.105Z,1022.69
2017-07-15T14:53:09.972Z,1022.56
2017-07-15T14:54:18.840Z,1022.74
2017-07-15T14:55:27.859Z,1022.45
2017-07-15T14:56:36.728Z,1022.42
2017-07-15T14:57:45.596Z,1022.53
2017-07-15T14:58:54.465Z,1023.31
2017-07-15T15:00:03.331Z,1023.78
2017-07-15T15:01:12.255Z,1023.69
2017-07-15T15:02:21.125Z,1023.85
2017-07-15T15:03:29.997Z,1022.42
2017-07-15T15:04:38.866Z,1022.37
2017-07-15T15:05:47.735Z,1022.4
2017-07-15T15:06:56.855Z,1022.33
2017-07-15T15:08:05.723Z,1022.39
2017-07-15T15:09:14.592Z,1022.47
2017-07-15T15:10:23.459Z,1022.85
2017-07-15T15:11:32.326Z,1022.54
2017-07-15T15:12:41.194Z,1022.44
2017-07-15T15:13:50.059Z,1022.47
2017-07-15T15:14:58.929Z,1022.55
2017-07-15T15:16:07.797Z,1022.63
2017-07-15T15:17:16.662Z,1023.14
2017-07-15T15:18:25.680Z,1023.28
2017-07-15T15:19:34.548Z,1023.3
2017-07-15T15:20:43.415Z,1022.9
2017-07-15T15:21:52.284Z,1023.38
2017-07-15T15:23:01.153Z,1023.42
2017-07-15T15:24:10.071Z,1023.7
2017-07-15T15:25:18.940Z,1023.69
2017-07-15T15:26:27.808Z,1023.77
2017-07-15T15:27:36.709Z,1023.78
2017-07-15T15:28:45.547Z,1023.86
2017-07-15T15:29:54.719Z,1022.84
2017-07-15T15:31:03.588Z,1023.3
2017-07-15T15:32:12.459Z,1022.46
2017-07-15T15:33:21.329Z,1022.46
2017-07-15T15:34:30.201Z,1022.53
2017-07-15T15:35:39.219Z,1023.43
2017-07-15T15:36:48.092Z,1023.51
2017-07-15T15:37:56.960Z,1023.42
2017-07-15T15:39:05.830Z,1023.34
2017-07-15T15:40:14.705Z,1023.24
2017-07-15T15:41:23.573Z,1023.16
2017-07-15T15:42:32.445Z,1023.17
2017-07-15T15:43:41.316Z,1023.21
2017-07-15T15:44:50.186Z,1023.15
2017-07-15T15:45:59.061Z,1023.12
2017-07-15T15:47:07.984Z,1023.11
2017-07-15T15:48:16.855Z,1023.11
2017-07-15T15:49:25.732Z,1023.09
2017-07-15T15:50:34.608Z,1023.03
2017-07-15T15:51:43.813Z,1023.15
2017-07-15T15:52:52.786Z,1022.72
2017-07-15T15:54:01.662Z,1022.56
2017-07-15T15:55:10.536Z,1022.55
2017-07-15T15:56:19.412Z,1022.51
2017-07-15T15:57:28.285Z,1022.55
2017-07-15T15:58:37.457Z,1023.03
2017-07-15T15:59:46.333Z,1022.92
2017-07-15T16:00:55.205Z,1023.11
2017-07-15T16:02:04.077Z,1023.03
2017-07-15T16:03:12.949Z,1023.16
2017-07-15T16:04:21.873Z,1023.21
2017-07-15T16:05:31.077Z,1023.04
2017-07-15T16:06:39.953Z,1023.1
2017-07-15T16:07:48.820Z,1023.16
2017-07-15T16:08:57.692Z,1023.24
2017-07-15T16:10:06.615Z,1023.19
2017-07-15T16:11:15.489Z,1023.2
2017-07-15T16:12:24.361Z,1023.19
2017-07-15T16:13:33.232Z,1023.23
2017-07-15T16:14:42.105Z,1023.28
2017-07-15T16:15:51.230Z,1023.14
2017-07-15T16:17:00.102Z,1023.25
2017-07-15T16:18:08.974Z,1023.4
2017-07-15T16:19:17.849Z,1023.37
2017-07-15T16:20:26.719Z,1023.34
2017-07-15T16:21:35.641Z,1023.18
2017-07-15T16:22:44.512Z,1023.08
2017-07-15T16:23:53.386Z,1022.94
2017-07-15T16:25:02.257Z,1022.88
2017-07-15T16:26:11.133Z,1022.88
2017-07-15T16:27:20.106Z,1022.57
2017-07-15T16:28:28.979Z,1022.83
2017-07-15T16:29:37.851Z,1022.8
2017-07-15T16:30:46.726Z,1022.82
2017-07-15T16:31:55.598Z,1022.79
2017-07-15T16:33:04.472Z,1022.78
2017-07-15T16:34:13.348Z,1022.74
2017-07-15T16:35:22.219Z,1022.58
2017-07-15T16:36:31.100Z,1022.52
2017-07-15T16:37:39.969Z,1022.6
2017-07-15T16:38:48.991Z,1022.68
2017-07-15T16:39:57.861Z,1022.78
2017-07-15T16:41:06.732Z,1022.73
2017-07-15T16:42:15.606Z,1022.61
2017-07-15T16:43:24.476Z,1022.7
2017-07-15T16:44:33.648Z,1022.66
2017-07-15T16:45:42.519Z,1022.74
2017-07-15T16:46:51.387Z,1022.78
2017-07-15T16:48:00.259Z,1022.81
2017-07-15T16:49:09.130Z,1022.8
2017-07-15T16:50:18.102Z,1022.46
2017-07-15T16:51:26.972Z,1022.72
2017-07-15T16:52:35.842Z,1022.64
2017-07-15T16:53:44.711Z,1022.75
2017-07-15T16:54:53.585Z,1022.55
2017-07-15T16:56:02.604Z,1022.79
2017-07-15T16:57:11.477Z,1022.87
2017-07-15T16:58:20.347Z,1022.78
2017-07-15T16:59:29.216Z,1022.78
2017-07-15T17:00:38.083Z,1022.71
2017-07-15T17:01:47.708Z,1022.75
2017-07-15T17:02:56.578Z,1022.76
2017-07-15T17:04:05.447Z,1022.82
2017-07-15T17:05:14.316Z,1022.86
2017-07-15T17:06:23.183Z,1022.89
2017-07-15T17:07:32.102Z,1022.97
2017-07-15T17:08:40.970Z,1023.08
2017-07-15T17:09:49.838Z,1023.14
2017-07-15T17:10:58.706Z,1023.16
2017-07-15T17:12:07.575Z,1023.16
2017-07-15T17:13:16.542Z,1023.19
2017-07-15T17:14:25.411Z,1023.16
2017-07-15T17:15:34.279Z,1023.18
2017-07-15T17:16:43.154Z,1023.16
2017-07-15T17:17:52.027Z,1023.13
2017-07-15T17:19:01.045Z,1023.13
2017-07-15T17:20:09.913Z,1023.17
2017-07-15T17:21:18.782Z,1023.17
2017-07-15T17:22:27.988Z,1023.12
2017-07-15T17:23:36.857Z,1023.1
2017-07-15T17:24:45.979Z,1023.12
2017-07-15T17:25:54.848Z,1023.11
2017-07-15T17:27:03.719Z,1023.04
2017-07-15T17:28:12.590Z,1023.04